Stavropol', Russia

5:29 PM MSK on February 08, 2016 (GMT +0300)
Shpakovskoye | | Change Station
CLOSE
Current Station
Airport
Location: Stavropol',
Elevation: 1483 ft
Nearby Weather Stations

Elev 1483 ft 45.12 °N, 42.08 °E | Updated 29 minutes ago

Mostly Cloudy
Mostly Cloudy
30 °F
Feels Like 19 °F
N
16
Wind Variable Wind from SE

Today
High -- | Low -- °F
--% Chance of Precip.
Yesterday
High -- | Low -- °F
Precip. -- in
Pressure 30.39 in
Visibility 6.2 miles
Clouds Mostly Cloudy 2300 ft
Windchill 19 °F
Dew Point 25 °F
Humidity 80%
Rainfall 0.00 in
Snow Depth Not available.
7:23 AM 5:28 PM
Waning Crescent, 0% visible
METAR URMT 081400Z 13007MPS 9999 BKN023 M01/M04 Q1029 R07/110060 NOSIG RMK QFE731
Pressure 30.39 in
Visibility 6.2 miles
Clouds Mostly Cloudy 2300 ft
Windchill 19 °F
Dew Point 25 °F
Humidity 80%
Rainfall 0.00 in
Snow Depth Not available.
7:23 AM 5:28 PM
Waning Crescent, 0% visible
METAR URMT 081400Z 13007MPS 9999 BKN023 M01/M04 Q1029 R07/110060 NOSIG RMK QFE731

10-Day Weather Forecast

Almanac

Astronomy

Feb. 08, 2016 Rise Set
Actual Time
Civil Twilight
Nautical Twilight
Astronomical Twilight
Moon
Length of Visible Light
Length of Day
Tomorrow will be .
, % of the Moon is Illuminated

Today's Extremes

Country Highs Country Lows

Community

WunderPhotos

Upload Photos

1,891,437 photos uploaded!

WunderBlog® & News

Nearby

Air Quality

  Air Quality AQ Index Pollutant
Not available.

Snow Depth

Station Depth Elevation

Earthquake Activity

City Distance Mag. Time & Date
Minimum magnitude displayed is 2.5.

Coastal Water Temperatures

Place Temperature

Stations

Nearby Weather Stations

Station Location Temp. Windchill Dew Point Humidity Wind Precip. Elev Updated Type